createdAt,value
2019-02-03T00:02:23.544Z,19.93
2019-02-03T00:04:55.024Z,20.37
2019-02-03T00:07:26.340Z,19.77
2019-02-03T00:09:57.701Z,21.37
2019-02-03T00:12:29.141Z,20.77
2019-02-03T00:15:00.557Z,19.37
2019-02-03T00:17:31.756Z,21.53
2019-02-03T00:20:03.352Z,18.43
2019-02-03T00:22:34.900Z,19.77
2019-02-03T00:25:07.070Z,19.73
2019-02-03T00:27:38.336Z,22.13
2019-02-03T00:30:10.756Z,18.33
2019-02-03T00:32:43.329Z,18.53
2019-02-03T00:35:15.478Z,18.67
2019-02-03T00:37:46.821Z,20.53
2019-02-03T00:40:18.204Z,17.80
2019-02-03T00:42:49.385Z,17.47
2019-02-03T00:45:20.726Z,18.30
2019-02-03T00:47:52.392Z,20.63
2019-02-03T00:50:23.636Z,25.67
2019-02-03T00:52:54.880Z,22.47
2019-02-03T00:55:26.126Z,22.73
2019-02-03T00:57:57.669Z,20.60
2019-02-03T01:00:29.145Z,19.47
2019-02-03T01:03:00.520Z,21.70
2019-02-03T01:05:31.773Z,18.03
2019-02-03T01:08:03.325Z,19.57
2019-02-03T01:10:34.773Z,17.20
2019-02-03T01:13:06.333Z,19.57
2019-02-03T01:15:37.580Z,18.43
2019-02-03T01:18:09.085Z,19.13
2019-02-03T01:20:40.317Z,20.37
2019-02-03T01:23:11.544Z,17.03
2019-02-03T01:25:42.928Z,18.93
2019-02-03T01:28:14.180Z,18.23
2019-02-03T01:30:45.403Z,20.03
2019-02-03T01:33:16.989Z,19.30
2019-02-03T01:35:48.254Z,21.97
2019-02-03T01:38:19.550Z,24.03
2019-02-03T01:40:51.220Z,20.27
2019-02-03T01:43:22.641Z,20.67
2019-02-03T01:45:54.444Z,16.73
2019-02-03T01:48:25.692Z,15.73
2019-02-03T01:50:56.948Z,19.17
2019-02-03T01:53:28.200Z,19.20
2019-02-03T01:55:59.781Z,23.23
2019-02-03T01:58:31.041Z,24.73
2019-02-03T03:01:23.601Z,27.93
2019-02-03T03:03:54.877Z,31.07
2019-02-03T03:06:26.144Z,31.30
2019-02-03T03:08:58.392Z,32.80
2019-02-03T03:11:30.034Z,30.73
2019-02-03T03:14:01.281Z,34.90
2019-02-03T03:16:32.941Z,31.53
2019-02-03T03:19:04.397Z,33.00
2019-02-03T03:21:35.614Z,35.53
2019-02-03T03:24:07.072Z,33.60
2019-02-03T03:26:38.277Z,35.57
2019-02-03T03:29:09.526Z,36.53
2019-02-03T03:31:40.804Z,35.90
2019-02-03T03:34:12.017Z,40.07
2019-02-03T03:36:43.248Z,37.97
2019-02-03T03:39:14.463Z,37.93
2019-02-03T03:41:45.793Z,37.93
2019-02-03T03:44:17.005Z,38.70
2019-02-03T03:46:48.253Z,34.97
2019-02-03T03:49:19.533Z,34.03
2019-02-03T03:51:50.855Z,37.83
2019-02-03T03:54:22.112Z,36.27
2019-02-03T03:56:53.361Z,38.77
2019-02-03T03:59:24.873Z,36.00
2019-02-03T04:01:56.257Z,36.03
2019-02-03T04:04:27.509Z,37.83
2019-02-03T04:06:58.755Z,35.77
2019-02-03T04:09:30.104Z,37.00
2019-02-03T04:12:01.552Z,35.87
2019-02-03T04:14:32.802Z,35.30
2019-02-03T04:17:04.049Z,36.70
2019-02-03T04:19:35.284Z,37.60
2019-02-03T04:22:06.513Z,36.13
2019-02-03T04:24:37.824Z,34.37
2019-02-03T04:27:09.171Z,37.17
2019-02-03T04:29:40.408Z,32.83
2019-02-03T04:32:11.657Z,34.27
2019-02-03T04:34:42.901Z,31.03
2019-02-03T04:37:14.159Z,34.10
2019-02-03T04:39:45.429Z,33.23
2019-02-03T04:42:17.676Z,32.70
2019-02-03T04:44:48.919Z,34.57
2019-02-03T04:47:20.200Z,31.93
2019-02-03T04:49:51.601Z,31.03
2019-02-03T04:52:22.852Z,31.80
2019-02-03T04:54:54.213Z,31.00
2019-02-03T04:57:25.456Z,32.97
2019-02-03T04:59:57.980Z,28.50
2019-02-03T05:02:29.256Z,32.57
2019-02-03T05:05:00.559Z,30.63
2019-02-03T05:07:31.786Z,27.77
2019-02-03T05:10:03.093Z,30.67
2019-02-03T05:12:34.597Z,32.97
2019-02-03T05:15:07.630Z,26.10
2019-02-03T05:17:38.882Z,30.97
2019-02-03T05:20:11.967Z,29.60
2019-02-03T05:22:43.250Z,34.48
2019-02-03T05:25:15.065Z,33.70
2019-02-03T05:27:46.316Z,28.53
2019-02-03T05:30:22.729Z,31.07
2019-02-03T05:32:54.141Z,29.63
2019-02-03T05:35:25.399Z,28.13
2019-02-03T05:37:56.738Z,27.40
2019-02-03T05:40:27.958Z,28.23
2019-02-03T05:42:59.608Z,27.90
2019-02-03T05:45:30.853Z,27.30
2019-02-03T05:48:02.065Z,25.87
2019-02-03T05:50:33.304Z,23.87
2019-02-03T05:53:04.955Z,26.83
2019-02-03T05:55:36.204Z,27.37
2019-02-03T05:58:07.437Z,27.93
2019-02-03T06:00:41.704Z,24.07
2019-02-03T06:03:12.999Z,23.07
2019-02-03T06:05:44.441Z,24.90
2019-02-03T06:08:15.703Z,25.17
2019-02-03T06:10:47.241Z,23.20
2019-02-03T06:13:18.481Z,24.77
2019-02-03T06:15:49.741Z,27.23
2019-02-03T06:18:20.981Z,24.93
2019-02-03T06:20:52.540Z,24.30
2019-02-03T06:23:23.848Z,23.33
2019-02-03T06:25:55.545Z,24.37
2019-02-03T06:28:26.795Z,22.03
2019-02-03T06:31:14.235Z,21.27
2019-02-03T06:33:45.396Z,20.07
2019-02-03T06:36:17.388Z,21.13
2019-02-03T06:38:48.821Z,23.67
2019-02-03T06:41:20.160Z,18.97
2019-02-03T06:43:51.700Z,20.23
2019-02-03T06:46:44.927Z,18.93
2019-02-03T06:49:37.304Z,20.70
2019-02-03T06:52:08.777Z,20.60
2019-02-03T06:54:40.001Z,17.53
2019-02-03T06:57:11.256Z,18.43
2019-02-03T06:59:50.608Z,17.97
2019-02-03T07:02:15.488Z,19.90
2019-02-03T07:04:46.905Z,19.63
2019-02-03T07:07:18.282Z,20.00
2019-02-03T07:09:59.668Z,17.47
2019-02-03T07:12:22.394Z,19.93
2019-02-03T07:14:54.071Z,20.30
2019-02-03T07:17:25.752Z,19.43
2019-02-03T07:19:57.105Z,19.90
2019-02-03T07:22:28.361Z,19.97
2019-02-03T07:25:02.236Z,20.63
2019-02-03T07:27:33.945Z,18.20
2019-02-03T07:30:06.490Z,21.40
2019-02-03T07:32:37.721Z,18.97
2019-02-03T07:35:09.569Z,19.47
2019-02-03T07:37:40.804Z,18.40
2019-02-03T07:40:12.931Z,18.67
2019-02-03T07:42:44.429Z,16.37
2019-02-03T07:45:15.881Z,16.17
2019-02-03T07:47:47.424Z,17.70
2019-02-03T07:50:18.777Z,18.67
2019-02-03T07:52:50.629Z,20.77
2019-02-03T07:55:25.544Z,15.27
2019-02-03T07:57:57.397Z,17.87
2019-02-03T08:00:28.685Z,15.20
2019-02-03T08:03:00.149Z,15.50
2019-02-03T08:05:31.439Z,14.67
2019-02-03T08:08:02.676Z,17.77
2019-02-03T08:10:33.932Z,16.27
2019-02-03T08:13:05.287Z,14.83
2019-02-03T08:15:37.624Z,17.70
2019-02-03T08:18:09.095Z,14.47
2019-02-03T08:20:41.485Z,17.50
2019-02-03T08:23:13.134Z,15.20
2019-02-03T08:25:44.657Z,18.40
2019-02-03T08:28:15.947Z,15.80
2019-02-03T08:30:47.378Z,15.70
2019-02-03T08:33:18.622Z,16.93
2019-02-03T08:35:50.197Z,14.77
2019-02-03T08:38:21.623Z,16.63
2019-02-03T08:40:52.837Z,22.73
2019-02-03T08:43:24.093Z,24.60
2019-02-03T08:45:56.609Z,25.13
2019-02-03T08:48:29.041Z,24.33
2019-02-03T08:51:00.716Z,23.03
2019-02-03T08:53:31.921Z,23.67
2019-02-03T08:56:03.178Z,22.20
2019-02-03T08:58:34.407Z,21.23
2019-02-03T09:01:05.932Z,23.80
2019-02-03T09:03:38.184Z,25.60
2019-02-03T09:06:11.032Z,21.90
2019-02-03T09:08:42.716Z,23.87
2019-02-03T09:11:14.400Z,32.07
2019-02-03T09:13:45.739Z,20.77
2019-02-03T09:16:17.085Z,22.00
2019-02-03T09:18:48.542Z,21.80
2019-02-03T09:21:20.096Z,21.23
2019-02-03T09:23:52.505Z,20.47
2019-02-03T09:26:23.752Z,23.53
2019-02-03T09:28:55.027Z,20.10
2019-02-03T09:31:26.353Z,20.53
2019-02-03T09:33:58.007Z,19.70
2019-02-03T09:36:29.209Z,23.00
2019-02-03T09:39:00.442Z,20.27
2019-02-03T09:41:32.870Z,18.80
2019-02-03T09:44:04.530Z,21.70
2019-02-03T09:46:35.782Z,22.13
2019-02-03T09:49:07.035Z,20.87
2019-02-03T09:51:38.291Z,24.83
2019-02-03T09:54:09.556Z,25.40
2019-02-03T09:56:40.909Z,25.10
2019-02-03T09:59:14.035Z,27.80
2019-02-03T10:01:45.283Z,20.70
2019-02-03T10:04:16.737Z,20.33
2019-02-03T10:06:48.282Z,22.00
2019-02-03T10:09:19.708Z,22.70
2019-02-03T10:11:52.428Z,22.93
2019-02-03T10:14:23.689Z,22.27
2019-02-03T10:16:56.229Z,21.27
2019-02-03T10:19:27.476Z,19.90
2019-02-03T10:21:59.932Z,20.70
2019-02-03T10:24:41.679Z,21.13
2019-02-03T10:27:04.164Z,18.67
2019-02-03T10:29:35.419Z,20.40
2019-02-03T10:32:06.666Z,19.97
2019-02-03T10:34:38.801Z,17.77
2019-02-03T10:37:10.052Z,20.53
2019-02-03T10:39:41.292Z,20.97
2019-02-03T10:42:12.541Z,19.87
2019-02-03T10:44:43.787Z,19.47
2019-02-03T10:47:15.471Z,16.33
2019-02-03T10:49:46.865Z,18.97
2019-02-03T10:52:18.081Z,20.20
2019-02-03T10:54:49.321Z,18.10
2019-02-03T10:57:20.874Z,16.27
2019-02-03T10:59:53.223Z,17.93
2019-02-03T11:02:24.482Z,20.20
2019-02-03T11:04:55.918Z,17.50
2019-02-03T11:07:28.242Z,18.20
2019-02-03T11:10:00.095Z,23.07
2019-02-03T11:12:31.726Z,19.97
2019-02-03T11:15:03.000Z,19.90
2019-02-03T11:17:35.264Z,17.87
2019-02-03T11:20:08.764Z,30.27
2019-02-03T11:22:40.016Z,18.33
2019-02-03T11:25:12.432Z,16.63
2019-02-03T11:27:43.797Z,18.43
2019-02-03T11:30:18.097Z,18.50
2019-02-03T11:32:49.566Z,18.63
2019-02-03T11:35:22.085Z,18.60
2019-02-03T11:37:53.665Z,16.57
2019-02-03T11:40:28.036Z,16.40
2019-02-03T11:42:59.552Z,17.47
2019-02-03T11:45:36.043Z,13.63
2019-02-03T11:48:10.248Z,17.43
2019-02-03T11:50:45.173Z,14.20
2019-02-03T11:53:19.866Z,15.90
2019-02-03T11:55:53.753Z,13.60
2019-02-03T11:58:24.550Z,12.87
2019-02-03T12:00:56.337Z,13.33
2019-02-03T12:03:28.663Z,13.27
2019-02-03T12:06:00.005Z,13.90
2019-02-03T12:08:31.246Z,15.30
2019-02-03T12:11:03.002Z,15.13
2019-02-03T12:13:34.253Z,12.30
2019-02-03T12:16:05.805Z,12.70
2019-02-03T12:18:37.054Z,12.77
2019-02-03T12:21:08.361Z,12.20
2019-02-03T12:23:39.604Z,12.03
2019-02-03T12:26:10.824Z,12.77
2019-02-03T12:28:42.076Z,11.63
2019-02-03T12:31:14.329Z,11.83
2019-02-03T12:33:45.655Z,8.17
2019-02-03T12:36:16.980Z,8.70
2019-02-03T12:38:48.251Z,7.83
2019-02-03T12:41:20.521Z,8.50
2019-02-03T12:43:52.633Z,8.30
2019-02-03T12:46:24.189Z,9.03
2019-02-03T12:48:55.428Z,6.60
2019-02-03T12:51:26.823Z,7.67
2019-02-03T12:53:58.044Z,7.67
2019-02-03T12:56:29.280Z,8.53
2019-02-03T12:59:00.608Z,7.87
2019-02-03T13:01:31.849Z,8.40
2019-02-03T13:04:03.924Z,6.87
2019-02-03T13:06:35.190Z,6.93
2019-02-03T13:09:10.617Z,7.43
2019-02-03T13:11:41.896Z,8.17
2019-02-03T13:14:13.466Z,8.27
2019-02-03T13:16:44.716Z,8.07
2019-02-03T13:19:15.968Z,6.83
2019-02-03T13:21:48.520Z,11.37
2019-02-03T13:24:20.194Z,8.40
2019-02-03T13:26:51.463Z,8.20
2019-02-03T13:29:22.709Z,9.27
2019-02-03T13:31:54.805Z,8.23
2019-02-03T13:34:26.052Z,10.20
2019-02-03T13:36:57.304Z,11.73
2019-02-03T13:39:28.520Z,14.10
2019-02-03T13:42:00.228Z,19.07
2019-02-03T13:44:31.869Z,14.63
2019-02-03T13:47:03.115Z,11.87
2019-02-03T13:49:34.393Z,11.60
2019-02-03T13:52:06.139Z,9.67
2019-02-03T13:54:37.537Z,10.63
2019-02-03T13:57:09.089Z,11.07
2019-02-03T13:59:40.329Z,11.00
2019-02-03T14:02:11.726Z,10.17
2019-02-03T14:04:42.976Z,10.17
2019-02-03T14:07:14.274Z,10.47
2019-02-03T14:09:46.349Z,12.43
2019-02-03T14:12:17.584Z,11.10
2019-02-03T14:14:48.805Z,11.13
2019-02-03T14:17:21.248Z,10.43
2019-02-03T14:19:52.689Z,9.30
2019-02-03T14:22:23.905Z,10.90
2019-02-03T14:24:55.184Z,15.40
2019-02-03T14:27:27.268Z,9.60
2019-02-03T14:29:59.496Z,8.30
2019-02-03T14:32:30.853Z,7.80
2019-02-03T14:35:02.115Z,8.77
2019-02-03T14:37:34.381Z,9.57
2019-02-03T14:40:06.408Z,9.37
2019-02-03T14:42:47.818Z,8.20
2019-02-03T14:45:12.975Z,7.60
2019-02-03T14:47:44.289Z,8.80
2019-02-03T14:50:19.989Z,7.83
2019-02-03T14:52:52.025Z,12.13
2019-02-03T14:55:25.973Z,8.67
2019-02-03T14:57:57.209Z,8.10
2019-02-03T15:00:48.602Z,7.77
2019-02-03T15:03:21.996Z,7.60
2019-02-03T15:05:53.312Z,8.20
2019-02-03T15:08:24.723Z,7.17
2019-02-03T15:10:56.524Z,7.30
2019-02-03T15:13:28.058Z,7.37
2019-02-03T15:16:00.577Z,6.93
2019-02-03T15:18:32.264Z,6.73
2019-02-03T15:21:04.771Z,6.53
2019-02-03T15:23:37.079Z,8.67
2019-02-03T15:26:08.933Z,6.17
2019-02-03T15:28:40.218Z,6.23
2019-02-03T15:31:11.458Z,6.50
2019-02-03T15:33:43.084Z,6.03
2019-02-03T15:36:15.140Z,6.60
2019-02-03T15:38:46.377Z,6.83
2019-02-03T15:41:17.572Z,6.97
2019-02-03T15:43:48.813Z,5.63
2019-02-03T15:46:20.032Z,6.13
2019-02-03T15:48:52.277Z,7.93
2019-02-03T15:51:23.691Z,7.53
2019-02-03T15:53:54.889Z,5.80
2019-02-03T15:56:26.257Z,6.43
2019-02-03T15:58:57.462Z,5.20
2019-02-03T16:01:28.725Z,5.97
2019-02-03T16:04:03.029Z,5.43
2019-02-03T16:06:34.343Z,6.70
2019-02-03T16:09:08.041Z,6.30
2019-02-03T16:11:39.473Z,6.23
2019-02-03T16:14:11.927Z,7.63
2019-02-03T16:16:43.180Z,6.57
2019-02-03T16:19:14.590Z,6.80
2019-02-03T16:21:46.849Z,7.10
2019-02-03T16:24:19.089Z,8.53
2019-02-03T16:26:54.457Z,7.23
2019-02-03T16:29:25.996Z,11.20
2019-02-03T16:31:58.380Z,11.53
2019-02-03T16:34:29.629Z,9.43
2019-02-03T16:37:01.108Z,7.80
2019-02-03T16:39:34.111Z,8.23
2019-02-03T16:42:05.516Z,6.83
2019-02-03T16:44:37.184Z,7.20
2019-02-03T16:47:08.441Z,7.83
2019-02-03T16:49:39.663Z,9.13
2019-02-03T16:52:12.661Z,7.83
2019-02-03T16:54:43.989Z,7.40
2019-02-03T16:57:15.513Z,6.40
2019-02-03T16:59:46.748Z,6.43
2019-02-03T17:02:17.949Z,6.50
2019-02-03T17:04:49.189Z,6.17
2019-02-03T17:07:20.462Z,7.27
2019-02-03T17:09:51.751Z,5.70
2019-02-03T17:12:22.933Z,7.07
2019-02-03T17:14:54.196Z,10.23
2019-02-03T17:17:26.329Z,4.70
2019-02-03T17:19:57.700Z,4.40
2019-02-03T17:22:29.253Z,6.93
2019-02-03T17:25:01.017Z,5.63
2019-02-03T17:27:32.241Z,4.43
2019-02-03T17:30:05.136Z,6.13
2019-02-03T17:32:36.472Z,6.43
2019-02-03T17:35:08.982Z,5.77
2019-02-03T17:37:40.228Z,4.80
2019-02-03T17:40:12.736Z,4.17
2019-02-03T17:42:44.165Z,4.87
2019-02-03T17:45:17.543Z,5.33
2019-02-03T17:47:49.576Z,4.93
2019-02-03T17:50:22.004Z,5.30
2019-02-03T17:52:53.294Z,5.23
2019-02-03T17:55:24.677Z,5.70
2019-02-03T17:57:56.425Z,5.20
2019-02-03T18:00:40.694Z,6.80
2019-02-03T18:03:13.050Z,7.40
2019-02-03T18:05:44.281Z,8.93
2019-02-03T18:08:15.566Z,6.87
2019-02-03T18:10:46.826Z,6.83
2019-02-03T18:13:18.324Z,8.07
2019-02-03T18:15:50.273Z,7.73
2019-02-03T18:18:21.520Z,7.13
2019-02-03T18:20:53.149Z,8.90
2019-02-03T18:23:24.387Z,7.67
2019-02-03T18:25:55.725Z,8.20
2019-02-03T18:28:26.938Z,8.20
2019-02-03T18:30:58.181Z,9.73
2019-02-03T18:33:29.741Z,8.57
2019-02-03T18:36:00.980Z,7.97
2019-02-03T18:38:32.245Z,10.10
2019-02-03T18:41:03.472Z,8.83
2019-02-03T18:43:36.897Z,7.67
2019-02-03T18:46:08.205Z,9.40
2019-02-03T18:48:39.477Z,10.70
2019-02-03T18:51:10.728Z,11.90
2019-02-03T18:53:43.085Z,11.07
2019-02-03T18:56:14.436Z,11.50
2019-02-03T18:58:45.658Z,10.53
2019-02-03T19:01:16.947Z,10.83
2019-02-03T19:03:48.205Z,12.10
2019-02-03T19:06:19.416Z,11.77
2019-02-03T19:08:51.000Z,15.87
2019-02-03T19:11:22.233Z,18.43
2019-02-03T19:13:53.488Z,15.03
2019-02-03T19:16:24.704Z,15.37
2019-02-03T19:18:56.263Z,12.20
2019-02-03T19:21:27.904Z,15.40
2019-02-03T19:23:59.151Z,15.13
2019-02-03T19:26:30.565Z,12.87
2019-02-03T19:29:02.349Z,12.47
2019-02-03T19:31:34.048Z,14.17
2019-02-03T19:34:05.432Z,18.37
2019-02-03T19:36:36.681Z,14.37
2019-02-03T19:39:10.784Z,12.37
2019-02-03T19:41:42.046Z,9.40
2019-02-03T19:44:13.388Z,9.10
2019-02-03T19:46:44.740Z,7.77
2019-02-03T19:49:16.577Z,7.83
2019-02-03T19:51:48.299Z,8.57
2019-02-03T19:54:19.539Z,9.47
2019-02-03T19:56:50.932Z,8.83
2019-02-03T19:59:22.185Z,8.67
2019-02-03T20:01:53.440Z,8.80
2019-02-03T20:04:25.672Z,8.77
2019-02-03T20:06:56.948Z,6.97
2019-02-03T20:09:29.361Z,8.27
2019-02-03T20:12:00.589Z,9.93
2019-02-03T20:14:31.835Z,10.37
2019-02-03T20:17:03.163Z,10.17
2019-02-03T20:19:34.380Z,8.77
2019-02-03T20:22:06.101Z,8.30
2019-02-03T20:24:37.608Z,9.07
2019-02-03T20:27:08.957Z,10.27
2019-02-03T20:29:40.164Z,9.20
2019-02-03T20:32:11.401Z,8.43
2019-02-03T20:34:42.755Z,8.40
2019-02-03T20:37:13.996Z,7.27
2019-02-03T20:39:45.407Z,8.63
2019-02-03T20:42:16.609Z,7.77
2019-02-03T20:44:47.833Z,7.10
2019-02-03T20:47:19.253Z,9.27
2019-02-03T20:49:51.436Z,11.40
2019-02-03T20:52:22.694Z,12.97
2019-02-03T20:54:53.904Z,10.77
2019-02-03T20:57:25.264Z,10.17
2019-02-03T20:59:56.501Z,10.53
2019-02-03T21:02:28.792Z,10.67
2019-02-03T21:05:00.037Z,11.83
2019-02-03T21:07:31.301Z,12.10
2019-02-03T21:10:02.626Z,11.23
2019-02-03T21:12:34.871Z,9.57
2019-02-03T21:15:07.581Z,10.87
2019-02-03T21:17:38.932Z,10.53
2019-02-03T21:20:14.708Z,10.57
2019-02-03T21:22:47.443Z,9.30
2019-02-03T21:25:19.273Z,7.50
2019-02-03T21:27:50.689Z,7.17
2019-02-03T21:30:36.045Z,6.90
2019-02-03T21:33:07.533Z,6.50
2019-02-03T21:35:38.880Z,5.40
2019-02-03T21:38:10.756Z,5.33
2019-02-03T21:40:42.001Z,36.63
2019-02-03T21:43:13.313Z,26.13
2019-02-03T21:45:45.350Z,9.47
2019-02-03T21:48:16.641Z,5.90
2019-02-03T21:50:47.898Z,8.50
2019-02-03T21:53:19.174Z,7.50
2019-02-03T21:55:50.412Z,10.07
2019-02-03T21:58:21.662Z,8.80
2019-02-03T22:00:53.320Z,9.60
2019-02-03T22:03:24.565Z,7.47
2019-02-03T22:05:55.948Z,8.63
2019-02-03T22:08:28.912Z,17.40
2019-02-03T22:11:00.259Z,12.77
2019-02-03T22:13:31.675Z,7.73
2019-02-03T22:16:03.073Z,6.90
2019-02-03T22:18:34.312Z,5.80
2019-02-03T22:21:05.841Z,6.27
2019-02-03T22:23:37.512Z,8.03
2019-02-03T22:26:08.912Z,7.40
2019-02-03T22:28:40.156Z,10.03
2019-02-03T22:31:12.399Z,9.30
2019-02-03T22:33:43.637Z,12.33
2019-02-03T22:36:14.885Z,6.93
2019-02-03T22:38:46.278Z,7.77
2019-02-03T22:41:17.508Z,4.77
2019-02-03T22:43:48.748Z,5.87
2019-02-03T22:46:19.985Z,5.67
2019-02-03T22:48:51.207Z,6.47
2019-02-03T22:51:22.458Z,6.60
2019-02-03T22:53:54.112Z,5.60
2019-02-03T22:56:25.536Z,5.97
2019-02-03T22:58:56.775Z,5.27
2019-02-03T23:01:35.884Z,6.60
2019-02-03T23:04:21.512Z,5.93
2019-02-03T23:06:52.885Z,6.90
2019-02-03T23:09:33.313Z,6.57
2019-02-03T23:12:07.414Z,7.37
2019-02-03T23:14:38.728Z,7.33
2019-02-03T23:17:11.128Z,6.43
2019-02-03T23:19:42.440Z,6.90
2019-02-03T23:22:13.753Z,7.33
2019-02-03T23:24:45.035Z,6.87
2019-02-03T23:27:16.709Z,6.57
2019-02-03T23:29:47.912Z,7.10
2019-02-03T23:32:19.153Z,5.87
2019-02-03T23:34:51.213Z,6.90
2019-02-03T23:37:22.623Z,7.60
2019-02-03T23:39:54.080Z,7.80
2019-02-03T23:42:25.315Z,6.73
2019-02-03T23:44:56.728Z,8.97
2019-02-03T23:47:27.969Z,11.13
2019-02-03T23:49:59.212Z,10.43
2019-02-03T23:52:30.966Z,11.40
2019-02-03T23:55:02.317Z,9.47
2019-02-03T23:57:33.556Z,9.77
